Time;durP1;ratioP1;P1;durP2;ratioP2;P2;SDS_P1;SDS_P2;PMS_P1;PMS_P2;Temp;Humidity;BMP_temperature;BMP_pressure;BME280_temperature;BME280_humidity;BME280_pressure;Samples;Min_cycle;Max_cycle;Signal;HPM_P1;HPM_P2
2020/12/27 00:02:22;;;;;;;2.13;0.80;;;;;;;0.34;70.61;100093.20;1770821;79;21211;-55
2020/12/27 00:04:49;;;;;;;2.03;1.00;;;;;;;0.35;70.64;100094.92;1793837;77;21171;-57
2020/12/27 00:07:17;;;;;;;2.70;1.00;;;;;;;0.36;70.68;100109.50;1769916;79;21186;-57
2020/12/27 00:09:45;;;;;;;2.07;1.20;;;;;;;0.37;70.67;100113.03;1762882;80;21214;-57
2020/12/27 00:12:13;;;;;;;3.23;0.87;;;;;;;0.39;70.62;100099.35;1791900;77;21222;-56
2020/12/27 00:14:41;;;;;;;2.90;1.23;;;;;;;0.38;70.59;100097.14;1772266;78;21230;-56
2020/12/27 00:17:11;;;;;;;1.43;1.00;;;;;;;0.38;70.54;100097.58;1766012;79;21181;-55
2020/12/27 00:19:39;;;;;;;1.70;1.07;;;;;;;0.38;70.54;100097.14;1766854;79;21924;-55
2020/12/27 00:22:08;;;;;;;1.90;0.90;;;;;;;0.36;70.52;100105.52;1774375;79;21179;-56
2020/12/27 00:24:36;;;;;;;2.60;0.90;;;;;;;0.35;70.54;100106.84;1788326;78;21762;-55
2020/12/27 00:27:03;;;;;;;1.47;0.90;;;;;;;0.33;70.59;100104.67;1751372;79;21248;-56
2020/12/27 00:29:30;;;;;;;1.10;0.80;;;;;;;0.33;70.61;100112.61;1767516;79;21185;-55
2020/12/27 00:31:57;;;;;;;1.43;0.80;;;;;;;0.34;70.64;100111.73;1773073;79;21159;-55
2020/12/27 00:34:25;;;;;;;2.57;0.80;;;;;;;0.33;70.65;100111.28;1763877;79;22173;-55
2020/12/27 00:36:57;;;;;;;0.87;0.70;;;;;;;0.33;70.63;100109.97;1777337;79;21677;-55
2020/12/27 00:39:24;;;;;;;1.40;0.87;;;;;;;0.32;70.67;100104.22;1793945;77;21207;-55
2020/12/27 00:41:54;;;;;;;1.30;0.70;;;;;;;0.32;70.64;100109.52;1774966;78;21199;-54
2020/12/27 00:44:21;;;;;;;1.70;0.80;;;;;;;0.32;70.68;100107.75;1744796;79;21243;-54
2020/12/27 00:46:52;;;;;;;2.30;0.90;;;;;;;0.32;70.61;100109.52;1777980;79;21122;-54
2020/12/27 00:49:22;;;;;;;1.37;0.90;;;;;;;0.29;70.62;100111.72;1797839;77;22801;-56
2020/12/27 00:51:50;;;;;;;3.27;1.13;;;;;;;0.28;70.70;100103.77;1766506;80;21178;-56
2020/12/27 00:54:19;;;;;;;2.27;1.00;;;;;;;0.28;70.73;100103.77;1765887;80;21242;-56
2020/12/27 00:56:50;;;;;;;1.93;0.80;;;;;;;0.28;70.78;100104.66;1760912;79;21013;-55
2020/12/27 00:59:18;;;;;;;1.80;0.90;;;;;;;0.29;70.75;100102.45;1774071;79;21269;-56
2020/12/27 01:01:46;;;;;;;2.10;1.00;;;;;;;0.30;70.73;100098.92;1762283;79;21198;-56
2020/12/27 01:04:35;;;;;;;1.77;1.00;;;;;;;0.33;70.71;100106.88;1867986;74;27191;-55
2020/12/27 01:07:02;;;;;;;1.40;1.00;;;;;;;0.30;70.71;100115.25;1778053;78;21192;-55
2020/12/27 01:09:30;;;;;;;4.47;1.30;;;;;;;0.31;70.74;100112.61;1777156;78;22121;-56
2020/12/27 01:11:57;;;;;;;2.50;1.07;;;;;;;0.31;70.76;100110.40;1780903;78;21077;-55
2020/12/27 01:14:24;;;;;;;2.77;1.30;;;;;;;0.33;70.80;100102.02;1781930;78;21024;-53
2020/12/27 01:16:54;;;;;;;3.63;1.70;;;;;;;0.33;70.79;100098.93;1780782;78;21193;-55
2020/12/27 01:19:22;;;;;;;2.30;1.17;;;;;;;0.32;70.75;100101.13;1785979;78;21976;-54
2020/12/27 01:21:49;;;;;;;3.93;1.70;;;;;;;0.33;70.81;100107.31;1780843;78;21809;-54
2020/12/27 01:24:20;;;;;;;4.50;1.40;;;;;;;0.31;70.87;100113.93;1779045;78;21654;-55
2020/12/27 01:26:47;;;;;;;3.27;1.30;;;;;;;0.32;70.89;100116.14;1780821;78;21187;-55
2020/12/27 01:29:15;;;;;;;4.23;1.40;;;;;;;0.33;70.90;100117.47;1772173;79;20977;-55
2020/12/27 01:31:44;;;;;;;1.67;1.17;;;;;;;0.34;70.90;100123.17;1754938;79;21206;-55
2020/12/27 01:34:13;;;;;;;2.00;1.10;;;;;;;0.36;70.94;100124.50;1754423;79;21221;-56
2020/12/27 01:36:41;;;;;;;3.20;1.43;;;;;;;0.38;70.92;100132.89;1753902;79;21218;-54
2020/12/27 01:39:11;;;;;;;4.07;1.30;;;;;;;0.40;70.92;100131.58;1753013;79;21213;-53
2020/12/27 01:41:38;;;;;;;2.40;1.13;;;;;;;0.42;70.88;100141.73;1761768;79;21580;-55
2020/12/27 01:44:09;;;;;;;3.20;1.10;;;;;;;0.42;70.96;100144.38;1751809;79;21170;-54
2020/12/27 01:46:41;;;;;;;2.73;1.07;;;;;;;0.42;70.97;100136.44;1731029;79;21663;-53
2020/12/27 01:50:55;;;;;;;4.17;1.20;;;;;;;0.49;71.02;100135.98;1864308;75;26648;-54
2020/12/27 01:53:30;;;;;;;2.20;1.10;;;;;;;0.45;71.05;100136.41;1728023;79;21187;-55
2020/12/27 01:55:57;;;;;;;4.53;1.17;;;;;;;0.48;71.09;100138.18;1800977;78;21768;-55
2020/12/27 01:58:25;;;;;;;4.23;1.13;;;;;;;0.49;71.07;100146.57;1799648;78;21505;-55
2020/12/27 02:00:58;;;;;;;2.17;1.10;;;;;;;0.51;71.05;100145.66;1784261;78;20972;-55
2020/12/27 02:03:43;;;;;;;4.57;1.20;;;;;;;0.53;71.06;100139.04;1757777;78;22189;-55
2020/12/27 02:06:29;;;;;;;4.93;1.40;;;;;;;0.55;70.99;100140.81;1868711;75;26673;-54
2020/12/27 02:08:59;;;;;;;2.47;1.03;;;;;;;0.54;71.02;100151.41;1796493;77;21474;-55
2020/12/27 02:11:28;;;;;;;3.73;1.23;;;;;;;0.55;70.91;100155.37;1801061;77;21455;-56
2020/12/27 02:13:58;;;;;;;3.23;1.60;;;;;;;0.57;71.01;100160.24;1799128;77;21083;-55
2020/12/27 02:16:29;;;;;;;2.80;1.20;;;;;;;0.58;70.92;100167.31;1792044;77;21469;-55
2020/12/27 02:19:21;;;;;;;4.10;1.20;;;;;;;0.64;70.87;100169.94;1821534;76;26606;-55
2020/12/27 02:21:50;;;;;;;2.30;1.00;;;;;;;0.61;70.83;100165.95;1797069;77;21182;-55
2020/12/27 02:24:20;;;;;;;3.60;1.27;;;;;;;0.62;70.76;100173.47;1788371;77;22055;-55
2020/12/27 02:26:59;;;;;;;3.80;0.83;;;;;;;0.62;70.81;100169.05;1797499;77;21195;-55
2020/12/27 02:29:29;;;;;;;3.50;1.20;;;;;;;0.64;70.74;100174.35;1792329;77;21462;-55
2020/12/27 02:31:57;;;;;;;1.93;1.10;;;;;;;0.65;70.72;100178.77;1701819;80;21212;-56
2020/12/27 02:34:24;;;;;;;2.80;1.73;;;;;;;0.64;70.69;100177.89;1737930;79;21051;-53
2020/12/27 02:36:51;;;;;;;1.97;1.07;;;;;;;0.67;70.70;100177.01;1739127;79;21599;-56
2020/12/27 02:39:21;;;;;;;3.33;1.30;;;;;;;0.69;70.67;100183.16;1794858;77;22124;-55
2020/12/27 02:41:51;;;;;;;3.97;1.57;;;;;;;0.70;70.63;100182.28;1788459;77;21170;-56
2020/12/27 02:44:23;;;;;;;2.80;1.10;;;;;;;0.72;70.59;100186.70;1792037;77;21197;-55
2020/12/27 02:46:53;;;;;;;1.70;0.83;;;;;;;0.73;70.49;100185.82;1791376;77;21152;-55
2020/12/27 02:49:38;;;;;;;1.80;0.93;;;;;;;0.75;70.50;100188.03;1796006;77;21423;-55
2020/12/27 02:52:07;;;;;;;1.87;1.17;;;;;;;0.75;70.31;100186.70;1797549;77;21187;-54
2020/12/27 02:54:35;;;;;;;1.83;0.87;;;;;;;0.77;70.30;100197.75;1735575;80;21492;-55
2020/12/27 02:57:04;;;;;;;0.97;0.70;;;;;;;0.80;70.26;100196.40;1746343;79;21192;-54
2020/12/27 02:59:31;;;;;;;1.77;0.60;;;;;;;0.80;70.15;100201.70;1787143;77;21187;-54
2020/12/27 03:02:00;;;;;;;1.00;0.70;;;;;;;0.81;69.98;100203.47;1792201;77;21620;-55
2020/12/27 03:04:30;;;;;;;2.10;0.67;;;;;;;0.80;69.94;100203.02;1790043;77;22201;-54
2020/12/27 03:06:59;;;;;;;1.73;0.77;;;;;;;0.80;69.91;100205.23;1798198;77;21147;-55
2020/12/27 03:09:28;;;;;;;1.33;0.80;;;;;;;0.82;69.96;100210.54;1786949;77;21386;-55
2020/12/27 03:12:11;;;;;;;0.93;0.60;;;;;;;0.86;69.89;100217.14;1825732;76;26691;-54
2020/12/27 03:14:38;;;;;;;1.20;0.70;;;;;;;0.84;69.84;100218.05;1796802;77;21032;-55
2020/12/27 03:17:24;;;;;;;1.03;0.60;;;;;;;0.83;69.74;100226.44;1789685;77;21193;-55
2020/12/27 03:20:05;;;;;;;1.60;0.70;;;;;;;0.82;69.68;100216.72;1793979;77;21442;-55
2020/12/27 03:22:37;;;;;;;1.00;0.67;;;;;;;0.83;69.73;100222.47;1791187;77;21187;-55
2020/12/27 03:25:14;;;;;;;1.45;0.80;;;;;;;0.88;69.76;100219.80;1853879;75;38638;-55
2020/12/27 03:27:42;;;;;;;1.30;0.80;;;;;;;0.89;69.75;100221.13;1808555;78;21229;-55
2020/12/27 03:30:09;;;;;;;2.20;0.70;;;;;;;0.95;69.56;100221.10;1779276;79;21380;-55
2020/12/27 03:32:38;;;;;;;1.27;0.70;;;;;;;0.97;69.49;100222.43;1778855;78;21103;-56
2020/12/27 03:35:07;;;;;;;0.97;0.63;;;;;;;0.99;69.49;100228.62;1804980;77;21087;-54
2020/12/27 03:37:36;;;;;;;1.73;0.70;;;;;;;1.00;69.40;100223.76;1792015;78;21198;-54
2020/12/27 03:40:22;;;;;;;1.93;0.70;;;;;;;1.04;69.39;100226.38;1871038;75;27829;-54
2020/12/27 03:42:54;;;;;;;1.40;0.80;;;;;;;1.00;69.31;100235.69;1840139;76;21020;-56
2020/12/27 03:45:22;;;;;;;1.20;0.70;;;;;;;0.99;69.27;100233.92;1836157;76;21381;-56
2020/12/27 03:48:08;;;;;;;2.60;0.83;;;;;;;0.98;69.32;100244.08;1838706;76;21350;-55
2020/12/27 03:50:45;;;;;;;1.50;0.67;;;;;;;1.00;69.37;100239.22;1820732;76;27575;-54
2020/12/27 03:55:47;;;;;;;1.93;0.80;;;;;;;1.01;69.34;100245.41;1870331;75;26588;-56
2020/12/27 03:58:17;;;;;;;1.10;0.70;;;;;;;0.98;69.36;100244.08;1774890;78;21572;-55
2020/12/27 04:00:46;;;;;;;2.40;0.90;;;;;;;1.00;69.43;100256.89;1776311;78;21856;-55
2020/12/27 04:03:15;;;;;;;1.17;0.70;;;;;;;1.00;69.43;100252.48;1777064;79;21175;-55
2020/12/27 04:05:43;;;;;;;2.13;0.90;;;;;;;1.02;69.44;100258.64;1772454;79;20937;-56
2020/12/27 04:08:11;;;;;;;1.50;0.87;;;;;;;1.02;69.37;100262.61;1779416;78;21072;-56
2020/12/27 04:10:41;;;;;;;1.87;1.10;;;;;;;1.03;69.44;100267.47;1760191;79;21200;-55
2020/12/27 04:13:08;;;;;;;1.80;1.10;;;;;;;1.04;69.40;100267.91;1759863;79;21421;-56
2020/12/27 04:15:36;;;;;;;1.90;1.10;;;;;;;1.04;69.46;100261.29;1772396;79;21828;-55
2020/12/27 04:18:05;;;;;;;1.47;0.87;;;;;;;1.04;69.47;100255.98;1759255;79;21480;-55
2020/12/27 04:20:34;;;;;;;2.10;0.97;;;;;;;1.04;69.42;100255.98;1755933;79;21750;-56
2020/12/27 04:23:02;;;;;;;3.30;1.07;;;;;;;1.04;69.33;100262.61;1764839;79;22000;-55
2020/12/27 04:25:30;;;;;;;4.03;1.40;;;;;;;1.04;69.18;100262.61;1760270;79;21412;-56
2020/12/27 04:27:57;;;;;;;3.00;1.00;;;;;;;1.03;69.10;100258.19;1761954;79;21573;-55
2020/12/27 04:30:25;;;;;;;2.60;1.27;;;;;;;1.01;69.08;100260.87;1758111;79;21207;-56
2020/12/27 04:33:02;;;;;;;4.12;1.67;;;;;;;1.07;69.10;100266.59;1801236;76;27827;-55
2020/12/27 04:35:31;;;;;;;3.47;1.50;;;;;;;1.06;69.18;100276.31;1795897;77;21401;-55
2020/12/27 04:37:59;;;;;;;1.73;1.10;;;;;;;1.15;69.09;100279.39;1796901;77;21405;-56
2020/12/27 04:40:28;;;;;;;2.23;1.00;;;;;;;1.14;69.11;100281.60;1792753;77;20962;-54
2020/12/27 04:42:56;;;;;;;1.90;1.20;;;;;;;1.14;69.03;100281.60;1795255;77;20938;-55
2020/12/27 04:45:25;;;;;;;2.20;1.00;;;;;;;1.13;69.01;100292.65;1791848;77;20978;-55
2020/12/27 04:48:16;;;;;;;7.90;1.67;;;;;;;1.17;69.04;100289.56;1819545;76;26542;-54
2020/12/27 04:51:06;;;;;;;4.20;1.53;;;;;;;1.12;69.05;100290.88;1793423;77;21266;-55
2020/12/27 04:53:34;;;;;;;3.70;1.40;;;;;;;1.13;69.07;100287.34;1801229;77;22200;-55
2020/12/27 04:56:05;;;;;;;4.33;1.40;;;;;;;1.13;69.11;100287.79;1794219;77;21558;-55
2020/12/27 04:58:34;;;;;;;6.40;1.80;;;;;;;1.14;69.11;100294.86;1760389;79;21194;-55
2020/12/27 05:01:17;;;;;;;5.30;1.83;;;;;;;1.17;69.05;100290.89;1868356;75;27173;-56
2020/12/27 05:03:51;;;;;;;4.40;1.73;;;;;;;1.11;69.03;100298.39;1776753;78;21182;-56
2020/12/27 05:06:19;;;;;;;2.57;1.30;;;;;;;1.10;69.13;100299.30;1778175;79;21486;-56
2020/12/27 05:08:47;;;;;;;2.77;1.70;;;;;;;1.10;69.02;100301.07;1727957;80;21020;-56
2020/12/27 05:11:16;;;;;;;2.67;1.20;;;;;;;1.09;68.99;100311.23;1755943;80;21016;-56
2020/12/27 05:13:46;;;;;;;2.77;1.20;;;;;;;1.08;69.00;100310.78;1756394;79;21128;-56
2020/12/27 05:16:15;;;;;;;3.83;1.53;;;;;;;1.05;69.15;100307.69;1754570;79;20967;-53
2020/12/27 05:18:43;;;;;;;3.87;1.20;;;;;;;1.06;69.22;100312.11;1758984;79;22073;-55
2020/12/27 05:21:11;;;;;;;2.63;1.10;;;;;;;1.06;69.31;100322.71;1757427;79;21004;-53
2020/12/27 05:23:39;;;;;;;2.13;1.00;;;;;;;1.05;69.27;100317.41;1778786;78;21342;-53
2020/12/27 05:26:08;;;;;;;2.37;1.00;;;;;;;1.05;69.32;100316.08;1671652;80;21489;-55
2020/12/27 05:28:37;;;;;;;2.03;0.80;;;;;;;1.05;69.39;100319.62;1779702;78;21616;-54
2020/12/27 05:31:13;;;;;;;2.43;0.80;;;;;;;1.05;69.41;100329.34;1754527;79;21544;-53
2020/12/27 05:33:59;;;;;;;1.73;0.90;;;;;;;1.04;69.47;100332.87;1758106;79;21186;-55
2020/12/27 05:36:41;;;;;;;1.80;0.90;;;;;;;1.09;69.52;100337.30;1864213;75;26754;-55
2020/12/27 05:39:15;;;;;;;1.10;0.80;;;;;;;1.05;69.64;100347.89;1779942;78;21158;-56
2020/12/27 05:42:07;;;;;;;1.82;0.78;;;;;;;1.05;69.70;100351.43;1711042;80;21213;-57
2020/12/27 05:44:35;;;;;;;1.40;0.80;;;;;;;1.06;69.70;100351.88;1727947;80;21307;-55
2020/12/27 05:47:02;;;;;;;1.30;0.70;;;;;;;1.05;69.66;100359.83;1727970;80;21405;-56
2020/12/27 05:49:31;;;;;;;1.60;0.80;;;;;;;1.05;69.71;100357.17;1735384;80;21201;-56
2020/12/27 05:52:15;;;;;;;2.33;0.80;;;;;;;1.04;69.79;100355.40;1737458;80;21621;-55
2020/12/27 05:54:55;;;;;;;1.50;0.80;;;;;;;1.04;69.85;100366.01;1731915;80;21914;-55
2020/12/27 05:57:24;;;;;;;3.27;0.83;;;;;;;1.05;69.92;100365.13;1729542;80;21639;-57
2020/12/27 05:59:52;;;;;;;2.97;0.90;;;;;;;1.03;69.87;100375.72;1736393;80;21214;-56
2020/12/27 06:02:40;;;;;;;4.10;1.57;;;;;;;1.04;69.94;100379.27;1727209;80;21401;-56
2020/12/27 06:05:33;;;;;;;5.13;1.70;;;;;;;1.04;69.90;100377.50;1725192;80;21178;-55
2020/12/27 06:08:24;;;;;;;3.30;1.50;;;;;;;1.04;69.90;100384.56;1734390;80;21397;-54
2020/12/27 06:11:01;;;;;;;3.17;1.70;;;;;;;1.04;69.98;100400.47;1733907;80;21177;-57
2020/12/27 06:13:40;;;;;;;3.30;1.30;;;;;;;1.03;70.06;100409.30;1735143;80;21194;-54
2020/12/27 06:16:17;;;;;;;3.40;1.13;;;;;;;1.04;70.08;100411.08;1733753;80;21674;-54
2020/12/27 06:18:51;;;;;;;3.27;1.30;;;;;;;1.04;70.08;100411.96;1738837;80;21193;-54
2020/12/27 06:21:24;;;;;;;2.40;1.03;;;;;;;1.05;70.18;100420.80;1744996;80;22256;-53
2020/12/27 06:23:53;;;;;;;2.63;1.00;;;;;;;1.06;70.21;100423.46;1703221;80;21213;-55
2020/12/27 06:26:22;;;;;;;4.30;1.20;;;;;;;1.05;70.23;100423.02;1710932;80;21603;-55
2020/12/27 06:29:08;;;;;;;3.17;1.17;;;;;;;1.08;70.17;100427.00;1747465;80;21186;-56
2020/12/27 06:31:37;;;;;;;7.17;1.23;;;;;;;1.09;70.26;100424.80;1750049;80;21387;-55
2020/12/27 06:34:07;;;;;;;2.43;1.40;;;;;;;1.10;70.22;100433.64;1743190;80;21637;-55
2020/12/27 06:36:51;;;;;;;2.20;1.17;;;;;;;1.13;70.15;100428.31;1825516;76;26558;-56
2020/12/27 06:39:35;;;;;;;2.07;1.43;;;;;;;1.08;70.17;100437.61;1791744;77;21191;-57
2020/12/27 06:42:16;;;;;;;3.53;1.30;;;;;;;1.08;70.33;100444.67;1800839;77;21171;-54
2020/12/27 06:44:53;;;;;;;2.83;1.33;;;;;;;1.10;70.24;100437.62;1868629;75;27077;-56
2020/12/27 06:47:48;;;;;;;4.43;1.73;;;;;;;1.05;70.31;100440.24;1769441;76;21210;-55
2020/12/27 06:50:23;;;;;;;2.53;1.10;;;;;;;1.05;70.33;100452.17;1840928;76;21068;-56
2020/12/27 06:53:02;;;;;;;3.43;1.20;;;;;;;1.10;70.37;100450.87;1869355;75;27246;-55
2020/12/27 06:55:38;;;;;;;4.80;1.80;;;;;;;1.08;70.37;100453.95;1837378;76;21704;-55
2020/12/27 06:58:22;;;;;;;3.57;1.40;;;;;;;1.08;70.36;100453.52;1845882;76;21448;-55
2020/12/27 07:01:20;;;;;;;3.53;1.73;;;;;;;1.10;70.38;100454.85;1845927;76;21389;-56
2020/12/27 07:03:47;;;;;;;3.43;1.60;;;;;;;1.11;70.48;100461.45;1847607;76;21162;-56
2020/12/27 07:06:26;;;;;;;3.30;1.30;;;;;;;1.13;70.41;100456.16;1844222;76;21071;-55
2020/12/27 07:08:56;;;;;;;3.07;1.30;;;;;;;1.14;70.34;100456.16;1805433;78;21110;-56
2020/12/27 07:11:25;;;;;;;2.83;1.20;;;;;;;1.16;70.37;100453.96;1817253;77;22296;-56
2020/12/27 07:13:54;;;;;;;2.20;1.57;;;;;;;1.19;70.43;100457.95;1811856;77;21113;-56
2020/12/27 07:16:39;;;;;;;3.63;1.60;;;;;;;1.20;70.44;100457.92;1809463;78;20953;-56
2020/12/27 07:19:06;;;;;;;3.30;1.60;;;;;;;1.22;70.41;100452.62;1816142;78;21098;-56
2020/12/27 07:21:38;;;;;;;2.10;1.47;;;;;;;1.24;70.33;100450.87;1810818;77;21202;-57
2020/12/27 07:24:14;;;;;;;5.07;1.97;;;;;;;1.26;70.35;100455.74;1778548;78;22542;-56
2020/12/27 07:26:44;;;;;;;4.37;1.83;;;;;;;1.29;70.36;100460.59;1809256;77;21182;-57
2020/12/27 07:29:17;;;;;;;6.50;1.97;;;;;;;1.32;70.35;100470.33;1814909;77;21608;-57
2020/12/27 07:31:45;;;;;;;1.90;1.50;;;;;;;1.34;70.25;100476.52;1746804;79;21086;-57
2020/12/27 07:34:14;;;;;;;3.07;1.90;;;;;;;1.33;70.29;100483.59;1742398;80;21160;-57
2020/12/27 07:36:41;;;;;;;3.73;2.20;;;;;;;1.32;70.26;100483.14;1740245;81;22627;-56
2020/12/27 07:39:10;;;;;;;1.83;1.37;;;;;;;1.33;70.27;100484.92;1748301;79;21602;-57
2020/12/27 07:41:40;;;;;;;2.50;1.77;;;;;;;1.34;70.32;100488.02;1751298;80;21239;-58
2020/12/27 07:44:12;;;;;;;2.60;1.53;;;;;;;1.35;70.24;100481.83;1752436;80;21616;-57
2020/12/27 07:46:39;;;;;;;4.37;1.93;;;;;;;1.35;70.25;100481.83;1754685;80;21212;-55
2020/12/27 07:49:11;;;;;;;3.67;1.70;;;;;;;1.37;70.19;100489.77;1752329;79;21822;-57
2020/12/27 07:51:38;;;;;;;5.90;2.77;;;;;;;1.36;70.10;100490.20;1748303;80;21227;-56
2020/12/27 07:54:05;;;;;;;8.47;2.57;;;;;;;1.36;70.09;100483.57;1749621;79;21178;-56
2020/12/27 07:56:33;;;;;;;4.70;2.93;;;;;;;1.36;70.10;100491.53;1749181;80;21637;-56
2020/12/27 07:59:02;;;;;;;9.83;3.23;;;;;;;1.36;70.11;100488.88;1754166;79;21214;-56
2020/12/27 08:01:34;;;;;;;6.60;2.93;;;;;;;1.37;70.15;100487.11;1752993;80;21319;-57
2020/12/27 08:04:06;;;;;;;7.10;3.93;;;;;;;1.38;70.17;100494.19;1754010;81;21210;-57
2020/12/27 08:06:39;;;;;;;6.27;3.47;;;;;;;1.37;70.13;100503.91;1773000;79;20950;-56
2020/12/27 08:09:14;;;;;;;6.70;3.43;;;;;;;1.39;70.19;100508.78;1773244;79;21194;-58
2020/12/27 08:11:42;;;;;;;8.38;3.22;;;;;;;1.41;70.20;100500.39;1774780;79;21842;-58
2020/12/27 08:14:11;;;;;;;5.70;3.20;;;;;;;1.44;70.07;100510.13;1776429;79;21202;-58
2020/12/27 08:16:42;;;;;;;8.40;4.63;;;;;;;1.42;70.04;100513.22;1779699;79;21154;-59
2020/12/27 08:19:17;;;;;;;4.70;3.50;;;;;;;1.42;70.14;100515.88;1778860;79;21564;-57
2020/12/27 08:21:45;;;;;;;;;;;;;;;1.42;70.21;100516.76;1738910;81;21214;-57
2020/12/27 08:24:16;;;;;;;5.23;3.83;;;;;;;1.45;70.25;100518.50;1743088;80;20280;-59
2020/12/27 08:26:45;;;;;;;9.23;3.93;;;;;;;1.46;70.27;100523.81;1777364;79;22046;-58
2020/12/27 08:29:23;;;;;;;8.87;4.07;;;;;;;1.50;70.21;100527.38;1775124;79;21435;-58
2020/12/27 08:31:57;;;;;;;9.63;4.63;;;;;;;1.53;70.16;100521.19;1774507;79;21106;-56
2020/12/27 08:34:24;;;;;;;10.60;5.23;;;;;;;1.55;70.21;100522.94;1741287;80;21477;-58
2020/12/27 08:36:59;;;;;;;11.87;5.50;;;;;;;1.59;70.16;100521.19;1749773;80;21633;-60
2020/12/27 08:39:53;;;;;;;7.90;4.25;;;;;;;1.63;70.14;100515.86;1749106;80;22110;-57
2020/12/27 08:42:40;;;;;;;8.10;4.00;;;;;;;1.70;70.12;100511.46;1744536;80;21510;-58
2020/12/27 08:45:21;;;;;;;7.93;4.00;;;;;;;1.79;70.08;100510.09;1778156;79;21150;-61
2020/12/27 08:47:58;;;;;;;8.83;4.40;;;;;;;1.86;70.02;100515.88;1745210;81;21192;-60
2020/12/27 08:50:27;;;;;;;9.67;5.40;;;;;;;1.93;69.96;100507.45;1777387;79;21198;-59
2020/12/27 08:52:56;;;;;;;9.60;5.37;;;;;;;2.00;69.76;100499.47;1711433;81;21379;-60
2020/12/27 08:55:27;;;;;;;9.60;4.73;;;;;;;2.10;69.57;100488.39;1778482;79;21068;-62
2020/12/27 08:57:54;;;;;;;7.73;4.13;;;;;;;2.15;69.28;100483.50;1739528;81;21528;-61
2020/12/27 09:00:22;;;;;;;6.37;3.27;;;;;;;2.19;68.94;100476.41;1737595;81;21566;-58
2020/12/27 09:02:58;;;;;;;7.73;3.83;;;;;;;2.23;68.84;100476.38;1736370;80;21499;-62
2020/12/27 09:05:27;;;;;;;7.60;4.13;;;;;;;2.26;68.68;100476.83;1768370;79;21584;-61
2020/12/27 09:07:55;;;;;;;6.87;3.00;;;;;;;2.31;68.73;100481.67;1758691;80;21507;-60
2020/12/27 09:10:30;;;;;;;9.10;3.50;;;;;;;2.36;68.71;100485.22;1753048;80;21863;-62
2020/12/27 09:13:05;;;;;;;4.77;2.60;;;;;;;2.42;68.58;100485.63;1759569;80;21274;-63
2020/12/27 09:15:41;;;;;;;4.80;2.67;;;;;;;2.48;68.29;100486.48;1758101;80;21206;-62
2020/12/27 09:18:11;;;;;;;3.23;1.90;;;;;;;2.54;67.95;100482.94;1756859;80;21605;-58
2020/12/27 09:20:42;;;;;;;8.63;2.70;;;;;;;2.59;67.66;100474.04;1756598;80;21578;-60
2020/12/27 09:23:17;;;;;;;4.03;3.43;;;;;;;2.65;67.34;100467.80;1752340;80;21633;-58
2020/12/27 09:25:45;;;;;;;2.43;1.67;;;;;;;2.70;67.10;100476.66;1758248;80;21542;-59
2020/12/27 09:28:19;;;;;;;6.23;2.33;;;;;;;2.75;66.74;100471.30;1758735;80;21192;-59
2020/12/27 09:31:05;;;;;;;4.97;4.35;;;;;;;2.78;66.19;100472.18;1758903;80;21221;-61
2020/12/27 09:33:37;;;;;;;10.37;9.07;;;;;;;2.84;65.67;100474.80;1755750;80;21657;-60
2020/12/27 09:36:07;;;;;;;6.73;5.13;;;;;;;2.90;65.50;100469.88;1733909;80;21577;-59
2020/12/27 09:38:38;;;;;;;9.23;4.90;;;;;;;2.96;65.10;100468.09;1762844;80;21205;-61
2020/12/27 09:41:09;;;;;;;4.70;1.87;;;;;;;3.01;64.91;100471.59;1758274;80;21194;-59
2020/12/27 09:43:58;;;;;;;20.30;9.47;;;;;;;3.04;64.28;100474.69;1756959;80;21455;-60
2020/12/27 09:46:43;;;;;;;2.37;1.00;;;;;;;3.11;63.80;100475.52;1753304;80;21203;-61
2020/12/27 09:49:32;;;;;;;3.00;1.57;;;;;;;3.21;62.61;100469.25;1760585;80;21216;-60
2020/12/27 09:52:12;;;;;;;24.77;18.97;;;;;;;3.32;61.79;100481.56;1757704;80;21629;-61
2020/12/27 09:54:43;;;;;;;2.63;1.50;;;;;;;3.40;60.90;100483.72;1757936;80;21126;-62
2020/12/27 09:57:12;;;;;;;1.80;1.10;;;;;;;3.46;60.41;100487.25;1760330;80;21698;-60
2020/12/27 09:59:41;;;;;;;1.77;0.80;;;;;;;3.49;60.53;100491.23;1757250;80;21194;-60
2020/12/27 10:02:08;;;;;;;3.40;1.17;;;;;;;3.50;60.49;100489.86;1754776;80;21150;-61
2020/12/27 10:04:36;;;;;;;2.60;1.77;;;;;;;3.49;60.82;100486.75;1732544;80;21138;-62
2020/12/27 10:07:04;;;;;;;5.60;3.20;;;;;;;3.47;61.07;100492.56;1759750;80;21101;-62
2020/12/27 10:09:31;;;;;;;4.93;2.20;;;;;;;3.45;61.51;100493.02;1757388;80;21215;-62
2020/12/27 10:12:01;;;;;;;4.53;2.40;;;;;;;3.42;62.16;100495.24;1750897;80;21197;-61
2020/12/27 10:14:29;;;;;;;4.20;3.13;;;;;;;3.39;62.51;100486.42;1758645;80;21144;-61
2020/12/27 10:16:59;;;;;;;6.00;3.23;;;;;;;3.36;62.28;100490.42;1758277;80;21189;-62
2020/12/27 10:19:29;;;;;;;10.53;5.63;;;;;;;3.32;62.50;100489.99;1754753;80;20979;-61
2020/12/27 10:21:56;;;;;;;12.67;7.87;;;;;;;3.30;62.84;100493.14;1756723;80;21012;-61
2020/12/27 10:24:26;;;;;;;9.23;4.23;;;;;;;3.27;63.11;100489.16;1758618;80;21542;-62
2020/12/27 10:26:53;;;;;;;4.43;3.20;;;;;;;3.25;63.56;100492.27;1755165;80;21182;-62
2020/12/27 10:29:21;;;;;;;7.00;3.33;;;;;;;3.24;63.82;100493.16;1755342;80;21215;-62
2020/12/27 10:31:54;;;;;;;4.47;3.07;;;;;;;3.23;63.76;100486.95;1756978;80;21767;-62
2020/12/27 10:34:22;;;;;;;6.27;4.23;;;;;;;3.22;63.80;100497.63;1756542;80;21475;-61
2020/12/27 10:36:50;;;;;;;3.97;3.23;;;;;;;3.21;64.02;100489.20;1759797;80;21181;-61
2020/12/27 10:39:18;;;;;;;16.50;11.20;;;;;;;3.19;64.26;100491.88;1758760;80;21202;-62
2020/12/27 10:41:46;;;;;;;11.13;5.27;;;;;;;3.21;64.14;100485.22;1757931;80;21902;-61
2020/12/27 10:44:15;;;;;;;7.70;4.67;;;;;;;3.20;64.30;100490.98;1755140;80;21167;-61
2020/12/27 10:46:43;;;;;;;8.17;4.30;;;;;;;3.23;64.46;100496.73;1757263;80;21831;-62
2020/12/27 10:49:11;;;;;;;5.23;3.43;;;;;;;3.21;64.33;100481.22;1759668;80;21729;-62
2020/12/27 10:51:40;;;;;;;3.57;2.27;;;;;;;3.20;63.80;100473.69;1756987;80;21182;-62
2020/12/27 10:54:09;;;;;;;4.77;3.30;;;;;;;3.19;63.59;100471.92;1757314;80;21671;-62
2020/12/27 10:56:37;;;;;;;16.63;11.20;;;;;;;3.17;63.37;100474.14;1760558;80;21165;-62
2020/12/27 10:59:04;;;;;;;58.23;37.20;;;;;;;3.16;63.38;100473.70;1756203;80;21218;-62
2020/12/27 11:01:31;;;;;;;78.30;47.17;;;;;;;3.16;63.46;100455.97;1749178;81;21177;-62
2020/12/27 11:03:58;;;;;;;69.37;43.07;;;;;;;3.16;63.64;100457.30;1748563;81;21432;-62
2020/12/27 11:06:32;;;;;;;15.93;10.27;;;;;;;3.15;63.40;100457.33;1750722;81;21605;-62
2020/12/27 11:09:00;;;;;;;55.30;33.50;;;;;;;3.13;63.57;100456.02;1772390;79;21174;-63
2020/12/27 11:11:29;;;;;;;14.37;9.50;;;;;;;3.12;63.55;100449.36;1749693;80;22063;-62
2020/12/27 11:13:56;;;;;;;6.80;6.07;;;;;;;3.11;63.87;100449.81;1777198;79;21266;-63
2020/12/27 11:16:23;;;;;;;12.27;8.93;;;;;;;3.10;63.85;100439.17;1777030;79;21762;-63
2020/12/27 11:18:50;;;;;;;14.87;9.20;;;;;;;3.12;63.67;100448.03;1772970;79;21207;-63
2020/12/27 11:21:17;;;;;;;5.63;2.27;;;;;;;3.14;62.86;100444.92;1747165;80;21205;-64
2020/12/27 11:23:45;;;;;;;13.53;6.03;;;;;;;3.16;62.34;100453.75;1777035;79;21401;-63
2020/12/27 11:26:18;;;;;;;38.07;20.50;;;;;;;3.18;61.80;100459.95;1781179;79;21197;-63
2020/12/27 11:28:46;;;;;;;4.60;2.33;;;;;;;3.20;61.72;100452.41;1746975;80;21564;-62
2020/12/27 11:31:18;;;;;;;3.40;0.90;;;;;;;3.22;61.56;100451.95;1753320;80;21210;-62
2020/12/27 11:33:46;;;;;;;3.50;1.20;;;;;;;3.25;61.32;100455.02;1739012;81;21605;-63
2020/12/27 11:36:13;;;;;;;5.40;2.97;;;;;;;3.27;61.00;100458.11;1741444;81;21209;-62
2020/12/27 11:38:41;;;;;;;2.13;1.23;;;;;;;3.30;60.95;100453.23;1749596;80;21171;-63
2020/12/27 11:41:12;;;;;;;1.43;0.60;;;;;;;3.30;60.38;100454.55;1747005;80;21228;-63
2020/12/27 11:43:40;;;;;;;2.07;0.50;;;;;;;3.29;59.64;100446.13;1775344;79;21198;-63
2020/12/27 11:46:08;;;;;;;1.20;0.77;;;;;;;3.27;58.96;100447.91;1744422;80;21210;-63
2020/12/27 11:48:35;;;;;;;0.90;0.60;;;;;;;3.23;58.73;100455.50;1745799;80;21426;-64
2020/12/27 11:51:03;;;;;;;3.40;1.20;;;;;;;3.19;58.68;100451.97;1773562;79;21636;-60
2020/12/27 11:53:31;;;;;;;1.30;0.80;;;;;;;3.15;58.63;100454.67;1732668;81;21203;-62
2020/12/27 11:55:58;;;;;;;3.20;1.23;;;;;;;3.11;58.54;100455.58;1743176;81;21202;-64
2020/12/27 11:58:27;;;;;;;3.27;1.83;;;;;;;3.07;58.14;100459.13;1744645;81;21143;-63